San Fermin Berria — EBVW — position and weather

sailwx.info

Track history (hours):
 
Tides and Currents Weather Stations Pressure Air Temp Water Temp Dewpoint Dewpoint Depression Visibility Wind Speed Wind Dir Waves Ship Positions

San Fermin Berria

Last reported at 2014-Sep-14 23:33 UTC. Time now 2014-Sep-19 13:51 UTC.
Position N 45°40' W 001°43'.

Length 30 m.

Type: Fishing. MMSI: 224114650.

Date/timePositionNaut miles runAvg speedWind from/ knotsBaromVisibWave heightAir tempDewpointWater temp
2014-Sep-14 23:33N 45°40' W 001°43'43 1.6
2014-Sep-13 20:33N 44°57' W 001°41'9 9.4
2014-Sep-13 19:33N 44°48' W 001°41'9 9.4
2014-Sep-13 18:33N 44°39' W 001°41'9 9.2
2014-Sep-13 17:34N 44°30' W 001°41'9 9.3
2014-Sep-13 16:33N 44°20' W 001°42'10 9.6
2014-Sep-13 15:34N 44°11' W 001°42'10 9.6
2014-Sep-13 14:34N 44°01' W 001°43'10 9.5
2014-Sep-13 13:33N 43°52' W 001°44'11 9.7
2014-Sep-13 12:26N 43°41' W 001°45'9 9.6
2014-Sep-13 11:33N 43°32' W 001°47'9 9.1
2014-Sep-13 10:33N 43°23' W 001°47'  
Track history (hours):
 
Tides and Currents Weather Stations Pressure Air Temp Water Temp Dewpoint Dewpoint Depression Visibility Wind Speed Wind Dir Waves Ship Positions

San Fermin Berria

Last reported at 2014-Sep-14 23:33 UTC. Time now 2014-Sep-19 13:51 UTC.
Position N 45°40' W 001°43'.

Length 30 m.

Type: Fishing. MMSI: 224114650.

Date/timePositionNaut miles runAvg speedWind from/ knotsBaromVisibWave heightAir tempDewpointWater temp
2014-Sep-14 23:33N 45°40' W 001°43'43 1.6
2014-Sep-13 20:33N 44°57' W 001°41'9 9.4
2014-Sep-13 19:33N 44°48' W 001°41'9 9.4
2014-Sep-13 18:33N 44°39' W 001°41'9 9.2
2014-Sep-13 17:34N 44°30' W 001°41'9 9.3
2014-Sep-13 16:33N 44°20' W 001°42'10 9.6
2014-Sep-13 15:34N 44°11' W 001°42'10 9.6
2014-Sep-13 14:34N 44°01' W 001°43'10 9.5
2014-Sep-13 13:33N 43°52' W 001°44'11 9.7
2014-Sep-13 12:26N 43°41' W 001°45'9 9.6
2014-Sep-13 11:33N 43°32' W 001°47'9 9.1
2014-Sep-13 10:33N 43°23' W 001°47'  

Dump ship's entire track history